createdAt,value
2023-03-28T00:01:29.709Z,11.80
2023-03-28T00:06:31.985Z,12.77
2023-03-28T00:11:33.852Z,11.30
2023-03-28T00:16:39.281Z,12.07
2023-03-28T00:21:47.024Z,12.38
2023-03-28T00:26:49.750Z,13.18
2023-03-28T00:31:51.706Z,12.73
2023-03-28T00:36:55.189Z,11.35
2023-03-28T00:42:01.483Z,14.10
2023-03-28T00:47:05.645Z,9.82
2023-03-28T00:52:08.543Z,12.38
2023-03-28T01:02:12.524Z,11.10
2023-03-28T01:07:16.375Z,9.82
2023-03-28T01:12:20.231Z,9.25
2023-03-28T01:17:21.988Z,11.10
2023-03-28T01:23:02.620Z,11.63
2023-03-28T01:28:24.046Z,12.60
2023-03-28T01:33:44.752Z,12.85
2023-03-28T01:38:58.254Z,13.77
2023-03-28T01:44:25.339Z,13.88
2023-03-28T01:49:41.951Z,14.32
2023-03-28T01:54:46.629Z,11.20
2023-03-28T02:00:15.762Z,11.63
2023-03-28T02:05:38.072Z,13.00
2023-03-28T02:10:46.202Z,14.02
2023-03-28T02:16:00.674Z,12.95
2023-03-28T02:21:34.850Z,13.75
2023-03-28T02:26:47.761Z,14.95
2023-03-28T02:31:59.797Z,14.82
2023-03-28T02:37:29.652Z,15.50
2023-03-28T02:42:39.809Z,13.98
2023-03-28T02:48:36.680Z,13.95
2023-03-28T02:53:51.072Z,16.23
2023-03-28T02:59:07.165Z,17.75
2023-03-28T03:04:09.025Z,15.85
2023-03-28T03:09:11.343Z,13.40
2023-03-28T03:14:13.077Z,12.15
2023-03-28T03:19:15.452Z,13.93
2023-03-28T03:24:17.193Z,12.67
2023-03-28T03:29:20.052Z,14.35
2023-03-28T03:34:21.957Z,15.03
2023-03-28T03:39:30.187Z,14.45
2023-03-28T03:44:32.022Z,15.82
2023-03-28T03:49:33.816Z,19.83
2023-03-28T03:54:38.486Z,17.90
2023-03-28T03:59:40.945Z,14.05
2023-03-28T04:04:47.764Z,13.82
2023-03-28T04:09:58.030Z,15.27
2023-03-28T04:15:02.702Z,14.75
2023-03-28T04:20:13.909Z,19.80
2023-03-28T04:25:34.596Z,14.73
2023-03-28T04:30:43.511Z,18.17
2023-03-28T04:36:09.767Z,16.30
2023-03-28T04:41:13.630Z,20.63
2023-03-28T04:46:33.829Z,16.80
2023-03-28T04:51:43.928Z,15.23
2023-03-28T04:56:49.410Z,14.77
2023-03-28T05:01:58.350Z,17.63
2023-03-28T05:07:03.821Z,15.98
2023-03-28T05:12:06.791Z,16.88
2023-03-28T05:17:24.732Z,14.90
2023-03-28T05:22:36.338Z,17.33
2023-03-28T05:27:38.765Z,15.55
2023-03-28T05:32:41.175Z,17.95
2023-03-28T05:37:47.032Z,20.40
2023-03-28T05:42:49.352Z,15.77
2023-03-28T05:47:56.034Z,18.73
2023-03-28T05:52:58.913Z,17.42
2023-03-28T05:58:00.615Z,17.60
2023-03-28T06:03:17.262Z,12.90
2023-03-28T06:08:20.539Z,12.77
2023-03-28T06:13:22.825Z,19.38
2023-03-28T06:18:26.239Z,14.65
2023-03-28T06:23:28.560Z,19.15
2023-03-28T06:28:31.302Z,13.18
2023-03-28T06:33:52.383Z,16.52
2023-03-28T06:38:58.217Z,15.75
2023-03-28T06:44:02.187Z,15.48
2023-03-28T06:49:29.907Z,16.35
2023-03-28T06:55:05.076Z,13.07
2023-03-28T07:00:08.293Z,15.57
2023-03-28T07:05:40.483Z,13.18
2023-03-28T07:10:43.333Z,17.13
2023-03-28T07:15:45.412Z,14.70
2023-03-28T07:20:51.947Z,14.00
2023-03-28T07:26:07.282Z,14.65
2023-03-28T07:31:09.638Z,14.93
2023-03-28T07:36:19.137Z,16.77
2023-03-28T07:41:26.628Z,11.98
2023-03-28T07:46:28.700Z,15.00
2023-03-28T07:51:32.359Z,16.52
2023-03-28T07:56:34.092Z,14.50
2023-03-28T08:01:46.835Z,14.10
2023-03-28T08:06:49.102Z,12.38
2023-03-28T08:11:51.152Z,12.73
2023-03-28T08:16:53.703Z,13.77
2023-03-28T08:21:58.721Z,12.90
2023-03-28T08:27:01.980Z,11.43
2023-03-28T08:32:06.378Z,13.65
2023-03-28T08:37:08.866Z,12.90
2023-03-28T08:42:28.660Z,10.97
2023-03-28T08:47:36.813Z,11.35
2023-03-28T08:52:40.694Z,12.52
2023-03-28T08:57:45.634Z,12.68
2023-03-28T09:02:49.159Z,8.95
2023-03-28T09:13:49.960Z,9.27
2023-03-28T09:19:36.886Z,11.48
2023-03-28T09:25:32.796Z,7.70
2023-03-28T09:30:43.499Z,12.32
2023-03-28T09:35:47.034Z,12.48
2023-03-28T09:40:54.365Z,9.80
2023-03-28T09:46:22.385Z,8.68
2023-03-28T09:51:42.684Z,7.05
2023-03-28T09:56:46.181Z,11.37
2023-03-28T10:02:00.731Z,7.53
2023-03-28T10:07:08.448Z,8.63
2023-03-28T10:12:10.974Z,6.70
2023-03-28T10:17:27.836Z,10.48
2023-03-28T10:22:33.940Z,11.80
2023-03-28T10:27:37.502Z,13.30
2023-03-28T10:32:42.714Z,8.23
2023-03-28T10:38:05.997Z,6.75
2023-03-28T10:43:39.946Z,7.00
2023-03-28T10:48:56.491Z,5.97
2023-03-28T10:54:27.002Z,7.43
2023-03-28T10:59:35.164Z,6.65
2023-03-28T11:04:56.459Z,6.00
2023-03-28T11:10:11.739Z,4.88
2023-03-28T11:15:38.204Z,5.38
2023-03-28T11:21:34.215Z,6.53
2023-03-28T11:27:08.625Z,6.97
2023-03-28T11:32:55.843Z,5.90
2023-03-28T11:38:06.349Z,4.18
2023-03-28T11:43:16.731Z,4.90
2023-03-28T11:48:43.771Z,5.47
2023-03-28T11:54:10.088Z,6.75
2023-03-28T11:59:22.824Z,5.05
2023-03-28T12:04:30.375Z,3.75
2023-03-28T12:10:00.123Z,5.93
2023-03-28T12:15:14.456Z,7.35
2023-03-28T12:20:56.127Z,5.57
2023-03-28T12:26:40.612Z,6.30
2023-03-28T12:32:19.778Z,6.63
2023-03-28T12:37:28.119Z,6.63
2023-03-28T12:42:36.352Z,6.72
2023-03-28T12:47:46.634Z,5.63
2023-03-28T12:52:49.516Z,6.47
2023-03-28T12:58:21.183Z,6.88
2023-03-28T13:04:01.424Z,5.78
2023-03-28T13:09:44.664Z,4.88
2023-03-28T13:15:01.944Z,6.05
2023-03-28T13:20:17.467Z,5.63
2023-03-28T13:25:25.673Z,4.40
2023-03-28T13:30:29.818Z,5.05
2023-03-28T13:35:44.747Z,4.38
2023-03-28T13:41:06.983Z,6.28
2023-03-28T13:46:16.586Z,6.93
2023-03-28T13:51:26.584Z,5.63
2023-03-28T13:56:34.435Z,6.15
2023-03-28T14:01:49.178Z,6.15
2023-03-28T14:06:52.791Z,4.63
2023-03-28T14:12:12.267Z,5.75
2023-03-28T14:17:36.619Z,4.78
2023-03-28T14:22:52.857Z,7.75
2023-03-28T14:28:07.908Z,5.18
2023-03-28T14:33:14.691Z,4.22
2023-03-28T14:38:32.078Z,6.80
2023-03-28T14:43:34.654Z,5.55
2023-03-28T14:48:39.119Z,5.43
2023-03-28T14:53:44.912Z,5.32
2023-03-28T14:58:48.423Z,7.63
2023-03-28T15:03:59.776Z,4.95
2023-03-28T15:09:11.304Z,4.43
2023-03-28T15:14:16.969Z,8.75
2023-03-28T15:19:32.077Z,3.75
2023-03-28T15:24:36.615Z,5.57
2023-03-28T15:29:39.338Z,7.78
2023-03-28T15:34:46.974Z,5.07
2023-03-28T15:39:50.885Z,6.85
2023-03-28T15:45:28.433Z,5.28
2023-03-28T15:50:37.429Z,6.20
2023-03-28T15:55:40.785Z,9.68
2023-03-28T16:00:49.273Z,6.20
2023-03-28T16:06:04.596Z,7.57
2023-03-28T16:11:21.422Z,5.88
2023-03-28T16:16:56.125Z,6.75
2023-03-28T16:22:17.690Z,6.07
2023-03-28T16:27:20.696Z,4.57
2023-03-28T16:32:23.876Z,5.32
2023-03-28T16:37:25.892Z,8.45
2023-03-28T16:42:28.580Z,5.43
2023-03-28T16:47:30.651Z,4.80
2023-03-28T16:52:32.605Z,4.70
2023-03-28T16:57:44.730Z,7.57
2023-03-28T17:02:52.310Z,4.85
2023-03-28T17:07:54.027Z,7.13
2023-03-28T17:12:56.641Z,4.20
2023-03-28T17:17:59.179Z,10.93
2023-03-28T17:23:01.071Z,6.03
2023-03-28T17:28:02.820Z,5.43
2023-03-28T17:33:04.730Z,7.70
2023-03-28T17:38:06.745Z,5.77
2023-03-28T17:43:09.341Z,7.30
2023-03-28T17:48:12.604Z,7.20
2023-03-28T17:53:14.361Z,6.00
2023-03-28T17:58:16.138Z,4.82
2023-03-28T18:03:18.121Z,4.10
2023-03-28T18:08:40.359Z,6.38
2023-03-28T18:13:42.969Z,6.47
2023-03-28T18:18:44.828Z,3.72
2023-03-28T18:23:48.139Z,6.70
2023-03-28T18:28:50.348Z,6.68
2023-03-28T18:33:53.984Z,8.15
2023-03-28T18:38:56.255Z,5.70
2023-03-28T18:43:58.126Z,5.95
2023-03-28T18:49:00.737Z,5.03
2023-03-28T18:54:03.694Z,6.43
2023-03-28T18:59:05.545Z,7.85
2023-03-28T19:04:07.850Z,4.07
2023-03-28T19:09:10.734Z,7.78
2023-03-28T19:14:13.059Z,8.98
2023-03-28T19:19:15.265Z,5.00
2023-03-28T19:24:19.904Z,7.30
2023-03-28T19:29:21.665Z,7.30
2023-03-28T19:34:23.714Z,8.80
2023-03-28T19:39:25.405Z,10.38
2023-03-28T19:44:27.183Z,8.35
2023-03-28T19:49:28.928Z,8.07
2023-03-28T19:54:30.588Z,6.70
2023-03-28T19:59:32.267Z,9.35
2023-03-28T20:04:34.093Z,6.90
2023-03-28T20:09:35.931Z,10.70
2023-03-28T20:14:37.603Z,12.27
2023-03-28T20:19:39.423Z,15.23
2023-03-28T20:24:41.269Z,11.83
2023-03-28T20:29:43.029Z,11.10
2023-03-28T20:34:44.856Z,10.52
2023-03-28T20:39:48.047Z,9.83
2023-03-28T20:44:49.994Z,8.32
2023-03-28T20:49:56.763Z,9.93
2023-03-28T20:54:58.927Z,7.35
2023-03-28T21:00:01.705Z,7.47
2023-03-28T21:10:07.372Z,9.98
2023-03-28T21:15:12.930Z,8.38
2023-03-28T21:20:14.772Z,10.70
2023-03-28T21:25:16.959Z,11.80
2023-03-28T21:30:19.392Z,9.33
2023-03-28T21:35:21.612Z,7.00
2023-03-28T21:40:23.632Z,9.45
2023-03-28T21:45:25.318Z,9.67
2023-03-28T21:50:31.315Z,11.48
2023-03-28T21:55:33.040Z,8.70
2023-03-28T22:00:35.173Z,7.45
2023-03-28T22:05:42.847Z,7.80
2023-03-28T22:10:50.294Z,7.97
2023-03-28T22:15:53.229Z,8.15
2023-03-28T22:20:55.232Z,6.65
2023-03-28T22:25:58.448Z,9.67
2023-03-28T22:31:00.461Z,10.40
2023-03-28T22:36:02.500Z,7.85
2023-03-28T22:41:04.758Z,8.17
2023-03-28T22:46:06.622Z,8.45
2023-03-28T22:51:11.851Z,7.17
2023-03-28T22:56:13.817Z,7.43
2023-03-28T23:01:15.600Z,7.57
2023-03-28T23:06:17.579Z,8.93
2023-03-28T23:11:19.908Z,9.60
2023-03-28T23:16:22.043Z,7.57
2023-03-28T23:21:24.426Z,8.40
2023-03-28T23:26:26.399Z,7.82
2023-03-28T23:31:28.306Z,7.60
2023-03-28T23:36:30.083Z,6.83
2023-03-28T23:41:32.089Z,7.68
2023-03-28T23:46:34.157Z,8.23
2023-03-28T23:51:36.439Z,9.03
2023-03-28T23:56:38.742Z,8.50
